createdAt,value
2022-10-17T00:00:24.463Z,15
2022-10-17T00:01:24.450Z,12
2022-10-17T00:02:24.464Z,11
2022-10-17T00:03:24.465Z,11
2022-10-17T00:04:24.464Z,14
2022-10-17T00:05:24.451Z,12
2022-10-17T00:06:24.465Z,13
2022-10-17T00:07:24.466Z,13
2022-10-17T00:08:24.452Z,11
2022-10-17T00:09:24.453Z,13
2022-10-17T00:10:24.466Z,13
2022-10-17T00:11:24.467Z,10
2022-10-17T00:12:24.454Z,9
2022-10-17T00:13:24.493Z,8
2022-10-17T00:14:24.467Z,9
2022-10-17T00:15:24.467Z,12
2022-10-17T00:16:24.455Z,12
2022-10-17T00:17:24.468Z,13
2022-10-17T00:18:24.468Z,10
2022-10-17T00:19:24.469Z,12
2022-10-17T00:20:24.456Z,12
2022-10-17T00:21:24.469Z,11
2022-10-17T00:22:24.470Z,12
2022-10-17T00:23:24.470Z,13
2022-10-17T00:24:24.457Z,11
2022-10-17T00:25:24.472Z,15
2022-10-17T00:26:24.471Z,10
2022-10-17T00:27:24.458Z,10
2022-10-17T00:28:24.458Z,9
2022-10-17T00:29:24.472Z,10
2022-10-17T00:30:24.473Z,11
2022-10-17T00:31:24.459Z,11
2022-10-17T00:32:24.473Z,9
2022-10-17T00:34:24.473Z,9
2022-10-17T00:35:24.461Z,10
2022-10-17T00:36:24.474Z,10
2022-10-17T00:37:24.478Z,10
2022-10-17T00:38:24.475Z,10
2022-10-17T00:39:24.462Z,11
2022-10-17T00:40:24.475Z,11
2022-10-17T00:41:24.476Z,11
2022-10-17T00:42:24.476Z,10
2022-10-17T00:43:24.463Z,10
2022-10-17T00:44:24.476Z,10
2022-10-17T00:45:24.478Z,10
2022-10-17T00:46:24.464Z,10
2022-10-17T00:47:24.464Z,10
2022-10-17T00:48:24.478Z,10
2022-10-17T00:49:24.518Z,11
2022-10-17T00:50:24.465Z,10
2022-10-17T00:51:24.478Z,12
2022-10-17T00:52:24.479Z,10
2022-10-17T00:53:24.479Z,11
2022-10-17T00:54:24.466Z,12
2022-10-17T00:55:24.480Z,12
2022-10-17T00:56:24.532Z,12
2022-10-17T00:57:24.480Z,11
2022-10-17T00:58:24.467Z,10
2022-10-17T00:59:24.481Z,9
2022-10-17T01:00:24.482Z,12
2022-10-17T01:01:24.481Z,8
2022-10-17T01:02:24.469Z,7
2022-10-17T01:03:24.482Z,7
2022-10-17T01:04:24.483Z,7
2022-10-17T01:05:24.469Z,8
2022-10-17T01:06:24.470Z,10
2022-10-17T01:07:24.483Z,10
2022-10-17T01:08:24.484Z,11
2022-10-17T01:09:24.471Z,11
2022-10-17T01:10:24.484Z,13
2022-10-17T01:11:24.484Z,13
2022-10-17T01:12:24.485Z,12
2022-10-17T01:13:24.472Z,10
2022-10-17T01:14:24.485Z,11
2022-10-17T01:15:24.489Z,10
2022-10-17T01:16:24.486Z,12
2022-10-17T01:17:24.473Z,14
2022-10-17T01:18:24.486Z,12
2022-10-17T01:19:24.487Z,12
2022-10-17T01:20:24.487Z,11
2022-10-17T01:21:24.474Z,11
2022-10-17T01:22:24.488Z,11
2022-10-17T01:23:24.488Z,16
2022-10-17T01:24:24.475Z,14
2022-10-17T01:25:24.475Z,13
2022-10-17T01:26:24.489Z,12
2022-10-17T01:27:24.490Z,13
2022-10-17T01:28:24.476Z,13
2022-10-17T01:29:24.490Z,15
2022-10-17T01:30:24.490Z,13
2022-10-17T01:31:24.490Z,16
2022-10-17T01:32:24.477Z,14
2022-10-17T01:33:24.491Z,13
2022-10-17T01:34:24.492Z,14
2022-10-17T01:35:24.491Z,14
2022-10-17T01:36:24.479Z,13
2022-10-17T01:37:24.492Z,15
2022-10-17T01:38:24.493Z,13
2022-10-17T01:39:24.479Z,14
2022-10-17T01:40:24.480Z,14
2022-10-17T01:41:24.493Z,14
2022-10-17T01:42:24.494Z,13
2022-10-17T01:43:24.481Z,14
2022-10-17T01:44:24.481Z,13
2022-10-17T01:45:24.495Z,14
2022-10-17T01:46:24.495Z,17
2022-10-17T01:47:24.482Z,19
2022-10-17T01:48:24.495Z,15
2022-10-17T01:49:24.496Z,16
2022-10-17T01:50:24.496Z,14
2022-10-17T01:51:24.483Z,13
2022-10-17T01:52:24.496Z,12
2022-10-17T01:53:24.497Z,14
2022-10-17T01:54:24.497Z,15
2022-10-17T01:55:24.484Z,16
2022-10-17T01:56:24.498Z,14
2022-10-17T01:57:24.498Z,19
2022-10-17T01:58:24.485Z,16
2022-10-17T01:59:24.485Z,16
2022-10-17T02:00:24.499Z,20
2022-10-17T02:01:24.499Z,17
2022-10-17T02:02:24.486Z,19
2022-10-17T02:03:24.541Z,19
2022-10-17T02:04:24.500Z,19
2022-10-17T02:05:24.500Z,18
2022-10-17T02:06:24.487Z,18
2022-10-17T02:07:24.501Z,19
2022-10-17T02:08:24.501Z,20
2022-10-17T02:09:24.501Z,17
2022-10-17T02:10:24.489Z,15
2022-10-17T02:11:24.502Z,17
2022-10-17T02:12:24.503Z,16
2022-10-17T02:13:24.502Z,15
2022-10-17T02:14:24.490Z,15
2022-10-17T02:15:24.553Z,16
2022-10-17T02:16:24.504Z,12
2022-10-17T02:17:24.490Z,12
2022-10-17T02:18:24.491Z,13
2022-10-17T02:19:24.504Z,15
2022-10-17T02:20:24.505Z,13
2022-10-17T02:21:24.492Z,15
2022-10-17T02:22:24.505Z,12
2022-10-17T02:23:24.505Z,12
2022-10-17T02:24:24.506Z,12
2022-10-17T02:25:24.493Z,15
2022-10-17T02:26:24.506Z,13
2022-10-17T02:27:24.559Z,13
2022-10-17T02:28:24.507Z,15
2022-10-17T02:29:24.494Z,13
2022-10-17T02:30:24.507Z,13
2022-10-17T02:31:24.508Z,12
2022-10-17T02:32:24.508Z,14
2022-10-17T02:33:24.495Z,14
2022-10-17T02:34:24.534Z,13
2022-10-17T02:35:24.509Z,14
2022-10-17T02:36:24.496Z,12
2022-10-17T02:37:24.496Z,12
2022-10-17T02:38:24.510Z,13
2022-10-17T02:39:24.510Z,13
2022-10-17T02:40:24.497Z,14
2022-10-17T02:41:24.510Z,14
2022-10-17T02:42:24.511Z,14
2022-10-17T02:43:24.511Z,11
2022-10-17T02:44:24.498Z,10
2022-10-17T02:45:24.512Z,14
2022-10-17T02:46:24.564Z,13
2022-10-17T02:47:24.512Z,15
2022-10-17T02:48:24.499Z,13
2022-10-17T02:49:24.513Z,15
2022-10-17T02:50:24.514Z,13
2022-10-17T02:51:24.513Z,13
2022-10-17T02:52:24.500Z,13
2022-10-17T02:53:24.514Z,11
2022-10-17T02:54:24.515Z,12
2022-10-17T02:55:24.501Z,11
2022-10-17T02:56:24.502Z,12
2022-10-17T02:57:24.515Z,13
2022-10-17T02:58:24.516Z,13
2022-10-17T02:59:24.502Z,15
2022-10-17T03:00:24.516Z,15
2022-10-17T03:01:24.516Z,15
2022-10-17T03:02:24.516Z,16
2022-10-17T03:03:24.504Z,14
2022-10-17T03:04:24.517Z,15
2022-10-17T03:05:24.518Z,15
2022-10-17T03:06:24.517Z,15
2022-10-17T03:07:24.505Z,13
2022-10-17T03:08:24.518Z,15
2022-10-17T03:09:24.519Z,13
2022-10-17T03:10:24.505Z,14
2022-10-17T03:11:24.506Z,12
2022-10-17T03:12:24.519Z,13
2022-10-17T03:13:24.520Z,11
2022-10-17T03:14:24.507Z,11
2022-10-17T03:15:24.507Z,15
2022-10-17T03:16:24.520Z,14
2022-10-17T03:17:24.521Z,15
2022-10-17T03:18:24.508Z,12
2022-10-17T03:19:24.521Z,11
2022-10-17T03:20:24.521Z,12
2022-10-17T03:21:24.522Z,11
2022-10-17T03:22:24.509Z,15
2022-10-17T03:23:24.522Z,13
2022-10-17T03:24:24.523Z,13
2022-10-17T03:25:24.523Z,13
2022-10-17T03:26:24.510Z,13
2022-10-17T03:27:24.523Z,12
2022-10-17T03:28:24.524Z,11
2022-10-17T03:29:24.511Z,11
2022-10-17T03:30:24.511Z,12
2022-10-17T03:31:24.524Z,14
2022-10-17T03:32:24.525Z,17
2022-10-17T03:33:24.512Z,12
2022-10-17T03:34:24.512Z,12
2022-10-17T03:35:24.525Z,11
2022-10-17T03:36:24.526Z,12
2022-10-17T03:37:24.513Z,15
2022-10-17T03:38:24.526Z,12
2022-10-17T03:39:24.527Z,14
2022-10-17T03:40:24.527Z,16
2022-10-17T03:41:24.514Z,17
2022-10-17T03:42:24.527Z,15
2022-10-17T03:43:24.528Z,16
2022-10-17T03:44:24.528Z,18
2022-10-17T03:45:24.515Z,14
2022-10-17T03:46:24.528Z,16
2022-10-17T03:47:24.529Z,15
2022-10-17T03:48:24.516Z,13
2022-10-17T03:49:24.516Z,17
2022-10-17T03:50:24.530Z,18
2022-10-17T03:51:24.530Z,16
2022-10-17T03:52:24.517Z,16
2022-10-17T03:53:24.595Z,16
2022-10-17T03:54:24.531Z,16
2022-10-17T03:55:24.531Z,14
2022-10-17T03:56:24.518Z,15
2022-10-17T03:57:24.531Z,13
2022-10-17T03:58:24.532Z,13
2022-10-17T03:59:24.532Z,14
2022-10-17T04:00:24.519Z,16
2022-10-17T04:01:24.533Z,14
2022-10-17T04:02:24.533Z,13
2022-10-17T04:03:24.533Z,12
2022-10-17T04:04:24.520Z,12
2022-10-17T04:05:24.583Z,14
2022-10-17T04:06:24.534Z,15
2022-10-17T04:07:24.521Z,19
2022-10-17T04:08:24.521Z,17
2022-10-17T04:09:24.535Z,17
2022-10-17T04:10:24.535Z,18
2022-10-17T04:11:24.522Z,15
2022-10-17T04:12:24.537Z,17
2022-10-17T04:13:24.536Z,16
2022-10-17T04:14:24.536Z,13
2022-10-17T04:15:24.523Z,13
2022-10-17T04:16:24.537Z,15
2022-10-17T04:17:24.537Z,14
2022-10-17T04:18:24.537Z,15
2022-10-17T04:19:24.524Z,14
2022-10-17T04:20:24.538Z,11
2022-10-17T04:21:24.538Z,13
2022-10-17T04:22:24.538Z,11
2022-10-17T04:23:24.525Z,10
2022-10-17T04:24:24.540Z,11
2022-10-17T04:25:24.540Z,13
2022-10-17T04:26:24.526Z,13
2022-10-17T04:27:24.526Z,12
2022-10-17T04:28:24.540Z,11
2022-10-17T04:29:24.541Z,13
2022-10-17T04:30:24.527Z,18
2022-10-17T04:31:24.541Z,20
2022-10-17T04:32:24.541Z,20
2022-10-17T04:33:24.541Z,18
2022-10-17T04:34:24.528Z,15
2022-10-17T04:35:24.542Z,18
2022-10-17T04:36:24.547Z,19
2022-10-17T04:37:24.542Z,20
2022-10-17T04:38:24.529Z,22
2022-10-17T04:39:24.543Z,20
2022-10-17T04:40:24.544Z,23
2022-10-17T04:41:24.543Z,26
2022-10-17T04:42:24.531Z,31
2022-10-17T04:43:24.544Z,20
2022-10-17T04:44:24.545Z,21
2022-10-17T04:45:24.531Z,20
2022-10-17T04:46:24.531Z,17
2022-10-17T04:47:24.545Z,21
2022-10-17T04:48:24.546Z,17
2022-10-17T04:49:24.532Z,18
2022-10-17T04:50:24.546Z,24
2022-10-17T04:51:24.546Z,19
2022-10-17T04:52:24.546Z,19
2022-10-17T04:53:24.533Z,18
2022-10-17T04:54:24.547Z,19
2022-10-17T04:55:24.548Z,13
2022-10-17T04:56:24.547Z,17
2022-10-17T04:57:24.534Z,15
2022-10-17T04:58:24.548Z,14
2022-10-17T04:59:24.549Z,20
2022-10-17T05:00:24.535Z,19
2022-10-17T05:01:24.535Z,23
2022-10-17T05:02:24.549Z,28
2022-10-17T05:06:24.550Z,22
2022-10-17T05:07:24.551Z,23
2022-10-17T05:08:24.537Z,26
2022-10-17T05:09:24.538Z,25
2022-10-17T05:10:24.551Z,26
2022-10-17T05:11:24.552Z,26
2022-10-17T05:12:24.538Z,26
2022-10-17T05:13:24.539Z,28
2022-10-17T05:14:24.552Z,32
2022-10-17T05:15:24.553Z,35
2022-10-17T05:16:24.539Z,31
2022-10-17T05:17:24.603Z,35
2022-10-17T05:18:24.553Z,31
2022-10-17T05:19:24.553Z,23
2022-10-17T05:20:24.540Z,28
2022-10-17T05:21:24.554Z,27
2022-10-17T05:22:24.554Z,27
2022-10-17T05:23:24.554Z,35
2022-10-17T05:24:24.542Z,33
2022-10-17T05:25:24.555Z,28
2022-10-17T05:26:24.556Z,28
2022-10-17T05:27:24.555Z,28
2022-10-17T05:28:24.543Z,32
2022-10-17T05:29:24.606Z,26
2022-10-17T05:30:24.557Z,34
2022-10-17T05:31:24.543Z,27
2022-10-17T05:32:24.544Z,31
2022-10-17T05:33:24.557Z,30
2022-10-17T05:34:24.558Z,27
2022-10-17T05:35:24.544Z,19
2022-10-17T05:36:24.558Z,30
2022-10-17T05:37:24.558Z,26
2022-10-17T05:38:24.558Z,28
2022-10-17T05:39:24.546Z,36
2022-10-17T05:40:24.559Z,32
2022-10-17T05:41:24.612Z,31
2022-10-17T05:42:24.559Z,31
2022-10-17T05:43:24.547Z,33
2022-10-17T05:44:24.560Z,38
2022-10-17T05:45:24.561Z,46
2022-10-17T05:46:24.560Z,41
2022-10-17T05:47:24.548Z,39
2022-10-17T05:48:24.561Z,30
2022-10-17T05:49:24.562Z,31
2022-10-17T05:50:24.548Z,37
2022-10-17T05:51:24.549Z,32
2022-10-17T05:52:24.562Z,29
2022-10-17T05:53:24.563Z,35
2022-10-17T05:54:24.549Z,31
2022-10-17T05:55:24.613Z,41
2022-10-17T05:56:24.563Z,32
2022-10-17T05:57:24.563Z,33
2022-10-17T05:58:24.550Z,40
2022-10-17T05:59:24.564Z,40
2022-10-17T06:00:24.564Z,40
2022-10-17T06:01:24.564Z,44
2022-10-17T06:02:24.551Z,37
2022-10-17T06:03:24.565Z,40
2022-10-17T06:04:24.566Z,35
2022-10-17T06:05:24.565Z,31
2022-10-17T06:06:24.553Z,35
2022-10-17T06:07:24.607Z,41
2022-10-17T06:08:24.567Z,32
2022-10-17T06:09:24.553Z,29
2022-10-17T06:10:24.554Z,34
2022-10-17T06:11:24.567Z,28
2022-10-17T06:12:24.568Z,33
2022-10-17T06:13:24.554Z,35
2022-10-17T06:14:24.568Z,40
2022-10-17T06:15:24.568Z,39
2022-10-17T06:16:24.568Z,35
2022-10-17T06:17:24.555Z,32
2022-10-17T06:18:24.569Z,53
2022-10-17T06:19:24.613Z,42
2022-10-17T06:20:24.569Z,37
2022-10-17T06:21:24.556Z,34
2022-10-17T06:22:24.570Z,41
2022-10-17T06:23:24.571Z,39
2022-10-17T06:24:24.570Z,33
2022-10-17T06:25:24.558Z,39
2022-10-17T06:26:24.571Z,34
2022-10-17T06:27:24.572Z,47
2022-10-17T06:28:24.558Z,42
2022-10-17T06:29:24.559Z,43
2022-10-17T06:30:24.572Z,42
2022-10-17T06:31:24.613Z,35
2022-10-17T06:32:24.559Z,41
2022-10-17T06:33:24.573Z,38
2022-10-17T06:34:24.573Z,40
2022-10-17T06:35:24.573Z,45
2022-10-17T06:36:24.560Z,46
2022-10-17T06:37:24.574Z,44
2022-10-17T06:38:24.574Z,37
2022-10-17T06:39:24.574Z,41
2022-10-17T06:40:24.561Z,43
2022-10-17T06:41:24.575Z,43
2022-10-17T06:42:24.576Z,39
2022-10-17T06:43:24.562Z,32
2022-10-17T06:44:24.563Z,38
2022-10-17T06:45:24.576Z,49
2022-10-17T06:46:24.577Z,38
2022-10-17T06:47:24.563Z,41
2022-10-17T06:48:24.564Z,36
2022-10-17T06:49:24.577Z,31
2022-10-17T06:50:24.578Z,35
2022-10-17T06:51:24.564Z,33
2022-10-17T06:52:24.578Z,29
2022-10-17T06:53:24.578Z,36
2022-10-17T06:54:24.578Z,35
2022-10-17T06:55:24.565Z,38
2022-10-17T06:56:24.579Z,32
2022-10-17T06:57:24.585Z,40
2022-10-17T06:58:24.579Z,45
2022-10-17T06:59:24.567Z,53
2022-10-17T07:00:24.580Z,46
2022-10-17T07:01:24.581Z,38
2022-10-17T07:02:24.580Z,35
2022-10-17T07:03:24.568Z,41
2022-10-17T07:04:24.581Z,44
2022-10-17T07:05:24.582Z,40
2022-10-17T07:06:24.569Z,43
2022-10-17T07:07:24.569Z,46
2022-10-17T07:08:24.582Z,43
2022-10-17T07:09:24.624Z,40
2022-10-17T07:10:24.570Z,39
2022-10-17T07:11:24.583Z,34
2022-10-17T07:12:24.584Z,44
2022-10-17T07:13:24.584Z,43
2022-10-17T07:14:24.571Z,49
2022-10-17T07:15:24.584Z,50
2022-10-17T07:16:24.586Z,37
2022-10-17T07:17:24.585Z,39
2022-10-17T07:18:24.572Z,47
2022-10-17T07:19:24.586Z,51
2022-10-17T07:20:24.587Z,51
2022-10-17T07:21:24.574Z,49
2022-10-17T07:22:24.574Z,51
2022-10-17T07:23:24.587Z,45
2022-10-17T07:24:24.588Z,45
2022-10-17T07:25:24.575Z,42
2022-10-17T07:26:24.576Z,46
2022-10-17T07:27:24.589Z,52
2022-10-17T07:28:24.590Z,47
2022-10-17T07:29:24.577Z,49
2022-10-17T07:30:24.590Z,60
2022-10-17T07:31:24.591Z,46
2022-10-17T07:32:24.591Z,44
2022-10-17T07:33:24.579Z,48
2022-10-17T07:34:24.592Z,49
2022-10-17T07:35:24.594Z,47
2022-10-17T07:36:24.593Z,50
2022-10-17T07:37:24.581Z,43
2022-10-17T07:38:24.594Z,35
2022-10-17T07:39:24.595Z,41
2022-10-17T07:40:24.582Z,39
2022-10-17T07:41:24.583Z,37
2022-10-17T07:42:24.596Z,43
2022-10-17T07:43:24.597Z,51
2022-10-17T07:44:24.584Z,48
2022-10-17T07:45:24.585Z,52
2022-10-17T07:46:24.598Z,47
2022-10-17T07:47:24.599Z,48
2022-10-17T07:48:24.586Z,42
2022-10-17T07:49:24.600Z,43
2022-10-17T07:50:24.601Z,50
2022-10-17T07:51:24.601Z,55
2022-10-17T07:52:24.588Z,41
2022-10-17T07:53:24.602Z,46
2022-10-17T07:54:24.630Z,49
2022-10-17T07:55:24.603Z,47
2022-10-17T07:56:24.590Z,47
2022-10-17T07:57:24.604Z,50
2022-10-17T07:58:24.605Z,45
2022-10-17T07:59:24.605Z,40
2022-10-17T08:00:24.592Z,39
2022-10-17T08:01:24.606Z,35
2022-10-17T08:02:24.607Z,37
2022-10-17T08:03:24.593Z,43
2022-10-17T08:04:24.594Z,49
2022-10-17T08:05:24.607Z,49
2022-10-17T08:06:24.672Z,53
2022-10-17T08:07:24.595Z,49
2022-10-17T08:08:24.609Z,56
2022-10-17T08:09:24.609Z,48
2022-10-17T08:10:24.610Z,46
2022-10-17T08:11:24.597Z,40
2022-10-17T08:12:24.611Z,36
2022-10-17T08:14:24.612Z,51
2022-10-17T08:15:24.599Z,41
2022-10-17T08:16:24.613Z,44
2022-10-17T08:17:24.614Z,50
2022-10-17T08:18:24.626Z,52
2022-10-17T08:19:24.601Z,41
2022-10-17T08:20:24.615Z,37
2022-10-17T08:21:24.616Z,39
2022-10-17T08:22:24.603Z,40
2022-10-17T08:23:24.603Z,42
2022-10-17T08:24:24.617Z,39
2022-10-17T08:25:24.618Z,41
2022-10-17T08:26:24.605Z,43
2022-10-17T08:27:24.619Z,44
2022-10-17T08:28:24.619Z,38
2022-10-17T08:29:24.620Z,39
2022-10-17T08:30:24.620Z,44
2022-10-17T08:31:24.621Z,45
2022-10-17T08:32:24.622Z,59
2022-10-17T08:33:24.622Z,46
2022-10-17T08:34:24.610Z,41
2022-10-17T08:35:24.623Z,29
2022-10-17T08:36:24.625Z,33
2022-10-17T08:37:24.611Z,33
2022-10-17T08:38:24.612Z,46
2022-10-17T08:39:24.626Z,39
2022-10-17T08:40:24.627Z,41
2022-10-17T08:41:24.614Z,46
2022-10-17T08:42:24.614Z,49
2022-10-17T08:43:24.628Z,44
2022-10-17T08:44:24.629Z,45
2022-10-17T08:45:24.616Z,51
2022-10-17T08:46:24.630Z,58
2022-10-17T08:47:24.631Z,58
2022-10-17T08:48:24.631Z,58
2022-10-17T08:49:24.619Z,53
2022-10-17T08:50:24.632Z,60
2022-10-17T08:51:24.633Z,61
2022-10-17T08:52:24.633Z,63
2022-10-17T08:53:24.621Z,64
2022-10-17T08:54:24.635Z,56
2022-10-17T08:55:24.636Z,53
2022-10-17T08:56:24.623Z,48
2022-10-17T08:57:24.623Z,60
2022-10-17T08:58:24.637Z,60
2022-10-17T08:59:24.638Z,57
2022-10-17T09:00:24.625Z,51
2022-10-17T09:01:24.626Z,48
2022-10-17T09:02:24.640Z,55
2022-10-17T09:03:24.640Z,47
2022-10-17T09:04:24.628Z,53
2022-10-17T09:05:24.642Z,60
2022-10-17T09:06:24.642Z,62
2022-10-17T09:07:24.642Z,56
2022-10-17T09:08:24.630Z,53
2022-10-17T09:09:24.644Z,53
2022-10-17T09:10:24.645Z,50
2022-10-17T09:11:24.645Z,56
2022-10-17T09:12:24.632Z,60
2022-10-17T09:13:24.646Z,51
2022-10-17T09:14:24.648Z,52
2022-10-17T09:15:24.657Z,53
2022-10-17T09:16:24.635Z,52
2022-10-17T09:17:24.648Z,52
2022-10-17T09:18:24.650Z,51
2022-10-17T09:19:24.637Z,45
2022-10-17T09:20:24.637Z,50
2022-10-17T09:21:24.651Z,41
2022-10-17T09:22:24.652Z,55
2022-10-17T09:23:24.639Z,46
2022-10-17T09:24:24.653Z,56
2022-10-17T09:25:24.653Z,52
2022-10-17T09:26:24.654Z,53
2022-10-17T09:27:24.654Z,60
2022-10-17T09:28:24.655Z,59
2022-10-17T09:29:24.657Z,55
2022-10-17T09:30:24.656Z,54
2022-10-17T09:31:24.644Z,69
2022-10-17T09:32:24.658Z,60
2022-10-17T09:33:24.659Z,56
2022-10-17T09:34:24.646Z,57
2022-10-17T09:36:24.660Z,62
2022-10-17T09:37:24.661Z,53
2022-10-17T09:38:24.648Z,49
2022-10-17T09:39:24.664Z,49
2022-10-17T09:40:24.663Z,51
2022-10-17T09:41:24.663Z,51
2022-10-17T09:42:24.651Z,53
2022-10-17T09:43:24.665Z,56
2022-10-17T09:44:24.665Z,54
2022-10-17T09:45:24.666Z,59
2022-10-17T09:46:24.653Z,65
2022-10-17T09:47:24.667Z,65
2022-10-17T09:48:24.668Z,69
2022-10-17T09:49:24.668Z,75
2022-10-17T09:50:24.656Z,71
2022-10-17T09:51:24.669Z,72
2022-10-17T09:52:24.670Z,63
2022-10-17T09:53:24.657Z,66
2022-10-17T09:54:24.658Z,58
2022-10-17T09:55:24.672Z,62
2022-10-17T09:56:24.673Z,51
2022-10-17T09:57:24.660Z,52
2022-10-17T09:58:24.715Z,55
2022-10-17T09:59:24.674Z,66
2022-10-17T10:00:30.784Z,68
2022-10-17T10:01:24.662Z,48
2022-10-17T10:02:24.676Z,60
2022-10-17T10:03:24.676Z,60
2022-10-17T10:04:24.677Z,61
2022-10-17T10:05:24.665Z,66
2022-10-17T10:06:24.678Z,68
2022-10-17T10:07:24.680Z,61
2022-10-17T10:08:24.679Z,64
2022-10-17T10:09:24.667Z,61
2022-10-17T10:10:24.681Z,64
2022-10-17T10:11:24.682Z,61
2022-10-17T10:12:24.669Z,73
2022-10-17T10:13:24.669Z,65
2022-10-17T10:14:24.683Z,55
2022-10-17T10:15:24.684Z,69
2022-10-17T10:16:24.671Z,84
2022-10-17T10:17:24.672Z,82
2022-10-17T10:18:24.685Z,83
2022-10-17T10:19:24.686Z,75
2022-10-17T10:20:24.673Z,71
2022-10-17T10:21:24.687Z,77
2022-10-17T10:22:24.688Z,80
2022-10-17T10:23:24.688Z,69
2022-10-17T10:24:24.676Z,88
2022-10-17T10:25:24.690Z,90
2022-10-17T10:26:24.691Z,86
2022-10-17T10:27:24.691Z,93
2022-10-17T10:28:24.678Z,89
2022-10-17T10:29:24.692Z,78
2022-10-17T10:30:24.694Z,91
2022-10-17T10:31:24.680Z,85
2022-10-17T10:32:24.681Z,80
2022-10-17T10:33:24.694Z,76
2022-10-17T10:34:24.696Z,72
2022-10-17T10:35:24.683Z,68
2022-10-17T10:36:24.746Z,68
2022-10-17T10:37:24.697Z,80
2022-10-17T10:38:24.698Z,90
2022-10-17T10:39:24.685Z,82
2022-10-17T10:40:24.699Z,81
2022-10-17T10:41:24.700Z,77
2022-10-17T10:42:24.700Z,77
2022-10-17T10:43:24.688Z,87
2022-10-17T10:44:24.702Z,84
2022-10-17T10:45:24.703Z,86
2022-10-17T10:46:24.703Z,88
2022-10-17T10:47:24.690Z,87
2022-10-17T10:48:24.704Z,67
2022-10-17T10:49:24.705Z,66
2022-10-17T10:50:24.692Z,68
2022-10-17T10:51:24.692Z,64
2022-10-17T10:52:24.706Z,89
2022-10-17T10:53:24.707Z,92
2022-10-17T10:54:24.694Z,86
2022-10-17T10:55:24.695Z,90
2022-10-17T10:56:24.709Z,78
2022-10-17T10:57:24.709Z,91
2022-10-17T10:58:24.697Z,94
2022-10-17T10:59:24.710Z,93
2022-10-17T11:00:28.422Z,95
2022-10-17T11:01:24.712Z,86
2022-10-17T11:02:24.699Z,92
2022-10-17T11:03:24.713Z,96
2022-10-17T11:04:24.759Z,93
2022-10-17T11:05:24.714Z,79
2022-10-17T11:06:24.702Z,89
2022-10-17T11:07:24.715Z,86
2022-10-17T11:08:24.717Z,92
2022-10-17T11:09:24.716Z,94
2022-10-17T11:10:24.704Z,104
2022-10-17T11:11:24.718Z,113
2022-10-17T11:12:24.719Z,103
2022-10-17T11:13:24.706Z,96
2022-10-17T11:14:24.706Z,91
2022-10-17T11:15:24.720Z,100
2022-10-17T11:16:24.722Z,106
2022-10-17T11:17:24.708Z,113
2022-10-17T11:18:24.722Z,93
2022-10-17T11:19:24.723Z,110
2022-10-17T11:20:24.723Z,99
2022-10-17T11:21:24.711Z,92
2022-10-17T11:22:24.724Z,93
2022-10-17T11:23:24.770Z,88
2022-10-17T11:24:24.725Z,85
2022-10-17T11:25:24.713Z,108
2022-10-17T11:26:24.727Z,105
2022-10-17T11:27:24.728Z,91
2022-10-17T11:28:24.728Z,89
2022-10-17T11:29:24.715Z,84
2022-10-17T11:30:24.729Z,87
2022-10-17T11:31:24.730Z,85
2022-10-17T11:32:24.717Z,80
2022-10-17T11:33:24.718Z,85
2022-10-17T11:34:24.732Z,79
2022-10-17T11:35:24.758Z,73
2022-10-17T11:36:24.720Z,82
2022-10-17T11:37:24.734Z,75
2022-10-17T11:38:24.734Z,66
2022-10-17T11:39:24.735Z,64
2022-10-17T11:40:24.722Z,65
2022-10-17T11:41:24.736Z,71
2022-10-17T11:42:24.737Z,77
2022-10-17T11:43:24.737Z,84
2022-10-17T11:44:24.725Z,79
2022-10-17T11:45:24.738Z,76
2022-10-17T11:46:24.740Z,86
2022-10-17T11:47:24.739Z,76
2022-10-17T11:48:24.727Z,69
2022-10-17T11:49:24.741Z,74
2022-10-17T11:50:24.742Z,77
2022-10-17T11:51:24.729Z,77
2022-10-17T11:52:24.729Z,80
2022-10-17T11:53:24.743Z,91
2022-10-17T11:54:24.745Z,85
2022-10-17T11:55:24.731Z,81
2022-10-17T11:56:24.745Z,81
2022-10-17T11:57:24.746Z,79
2022-10-17T11:58:24.746Z,67
2022-10-17T11:59:24.734Z,64
2022-10-17T12:00:24.747Z,79
2022-10-17T12:01:24.775Z,66
2022-10-17T12:02:24.749Z,65
2022-10-17T12:03:24.736Z,67
2022-10-17T12:04:24.750Z,54
2022-10-17T12:05:24.751Z,65
2022-10-17T12:06:24.751Z,65
2022-10-17T12:07:24.739Z,60
2022-10-17T12:08:24.752Z,59
2022-10-17T12:09:24.754Z,58
2022-10-17T12:10:24.740Z,68
2022-10-17T12:11:24.741Z,66
2022-10-17T12:12:24.755Z,54
2022-10-17T12:13:24.757Z,70
2022-10-17T12:14:24.743Z,77
2022-10-17T12:15:24.807Z,78
2022-10-17T12:16:24.757Z,73
2022-10-17T12:17:24.758Z,64
2022-10-17T12:18:24.745Z,67
2022-10-17T12:19:24.759Z,76
2022-10-17T12:20:24.760Z,72
2022-10-17T12:21:24.760Z,63
2022-10-17T12:22:24.748Z,64
2022-10-17T12:23:24.762Z,77
2022-10-17T12:24:24.763Z,74
2022-10-17T12:25:24.763Z,60
2022-10-17T12:26:24.750Z,63
2022-10-17T12:27:24.764Z,58
2022-10-17T12:28:24.765Z,57
2022-10-17T12:29:24.752Z,52
2022-10-17T12:30:24.753Z,58
2022-10-17T12:31:24.767Z,60
2022-10-17T12:32:24.768Z,65
2022-10-17T12:33:24.755Z,81
2022-10-17T12:34:24.810Z,77
2022-10-17T12:35:24.769Z,64
2022-10-17T12:36:24.770Z,69
2022-10-17T12:37:24.757Z,77
2022-10-17T12:38:24.771Z,77
2022-10-17T12:39:24.771Z,66
2022-10-17T12:40:24.772Z,82
2022-10-17T12:41:24.760Z,80
2022-10-17T12:42:24.773Z,78
2022-10-17T12:43:24.775Z,76
2022-10-17T12:44:24.775Z,82
2022-10-17T12:45:24.762Z,82
2022-10-17T12:46:24.777Z,68
2022-10-17T12:47:24.777Z,70
2022-10-17T12:48:24.764Z,64
2022-10-17T12:49:24.765Z,59
2022-10-17T12:50:24.778Z,59
2022-10-17T12:51:24.780Z,60
2022-10-17T12:52:24.766Z,60
2022-10-17T12:53:24.780Z,60
2022-10-17T12:54:24.781Z,58
2022-10-17T12:55:24.781Z,57
2022-10-17T12:56:24.769Z,56
2022-10-17T12:57:24.782Z,57
2022-10-17T12:58:24.784Z,57
2022-10-17T12:59:24.784Z,56
2022-10-17T13:00:24.771Z,65
2022-10-17T13:01:24.785Z,65
2022-10-17T13:02:24.786Z,66
2022-10-17T13:03:24.773Z,65
2022-10-17T13:04:24.773Z,70
2022-10-17T13:05:24.787Z,63
2022-10-17T13:06:24.788Z,59
2022-10-17T13:07:24.775Z,65
2022-10-17T13:08:24.776Z,69
2022-10-17T13:09:24.790Z,64
2022-10-17T13:10:24.831Z,69
2022-10-17T13:11:24.777Z,71
2022-10-17T13:12:24.791Z,71
2022-10-17T13:13:24.792Z,62
2022-10-17T13:14:24.792Z,63
2022-10-17T13:15:24.780Z,71
2022-10-17T13:16:24.794Z,75
2022-10-17T13:17:24.795Z,63
2022-10-17T13:18:24.795Z,61
2022-10-17T13:19:24.782Z,63
2022-10-17T13:20:24.796Z,61
2022-10-17T13:21:24.797Z,67
2022-10-17T13:22:24.784Z,62
2022-10-17T13:23:24.784Z,69
2022-10-17T13:24:24.798Z,64
2022-10-17T13:25:24.799Z,58
2022-10-17T13:26:24.786Z,73
2022-10-17T13:27:24.787Z,76
2022-10-17T13:28:24.800Z,69
2022-10-17T13:29:24.801Z,65
2022-10-17T13:30:24.788Z,66
2022-10-17T13:31:24.802Z,62
2022-10-17T13:32:24.803Z,69
2022-10-17T13:33:24.803Z,67
2022-10-17T13:34:24.791Z,75
2022-10-17T13:35:24.805Z,70
2022-10-17T13:36:24.806Z,75
2022-10-17T13:37:24.806Z,86
2022-10-17T13:38:24.793Z,98
2022-10-17T13:39:24.807Z,106
2022-10-17T13:40:24.808Z,84
2022-10-17T13:41:24.795Z,90
2022-10-17T13:42:24.795Z,81
2022-10-17T13:43:24.809Z,76
2022-10-17T13:44:24.810Z,80
2022-10-17T13:45:24.797Z,82
2022-10-17T13:46:24.875Z,78
2022-10-17T13:47:24.811Z,69
2022-10-17T13:48:24.812Z,55
2022-10-17T13:49:24.800Z,63
2022-10-17T13:50:24.813Z,66
2022-10-17T13:51:24.814Z,62
2022-10-17T13:52:24.814Z,68
2022-10-17T13:53:24.802Z,71
2022-10-17T13:54:24.816Z,72
2022-10-17T13:55:24.817Z,78
2022-10-17T13:56:24.817Z,77
2022-10-17T13:57:24.804Z,78
2022-10-17T13:58:24.868Z,85
2022-10-17T13:59:24.819Z,90
2022-10-17T14:00:24.806Z,87
2022-10-17T14:01:24.807Z,84
2022-10-17T14:02:24.820Z,81
2022-10-17T14:03:24.821Z,73
2022-10-17T14:04:24.808Z,74
2022-10-17T14:05:24.886Z,70
2022-10-17T14:06:24.823Z,82
2022-10-17T14:07:24.823Z,75
2022-10-17T14:08:24.811Z,73
2022-10-17T14:09:24.824Z,86
2022-10-17T14:10:24.825Z,86
2022-10-17T14:11:24.826Z,98
2022-10-17T14:12:24.813Z,90
2022-10-17T14:13:24.827Z,82
2022-10-17T14:14:24.833Z,76
2022-10-17T14:15:24.828Z,82
2022-10-17T14:16:24.815Z,81
2022-10-17T14:17:24.829Z,84
2022-10-17T14:18:24.830Z,81
2022-10-17T14:19:24.830Z,82
2022-10-17T14:20:24.818Z,79
2022-10-17T14:21:24.831Z,77